Strona główna
METAR-TAF:

METAR-TAF

Lotnisko :

Port lotniczy Foz do Iguaçu

Foz do Iguaçu, Parana, Brazylia

Szerokość geograficzna: 25-31S, Długość geograficzna: 054-35W, wysokość: 180 m

Aktualna obserwacja pogody

Raport powstał 26 minut temu, godzina 15:00 UTC
Wiatr 4 kt od wschód
Temperatura 20°C
Wilgotność 68%
Ciśnienie 1023 hPa
Widzialność 10 km lub więcej
Brak chmur poniżej 1500 m i brak chmur cumulonimbus

METAR: SBFI 241500Z 09004KT CAVOK 20/14 Q1023

czas: 12:26 (15:26 UTC)

Prognoza

Raport powstał 5 godziny i 41 minut temu, godzina 09:45 UTC
Prognoza ważna od 24 godzina 12 UTC do 25 godzina 12 UTC
Wiatr 4 kt od południowo-południowy wschód
Widzialność 10 km lub więcej
Brak chmur poniżej 1500 m i brak chmur cumulonimbus
Prawdopodobieństwo 30% :
Przejściowo
od 25 godzina 08 UTC do 25 godzina 11 UTC
Widzialność: 7000 m

TAF: SBFI 240945Z 2412/2512 16004KT CAVOK TX18/2418Z TN08/2509Z PROB30 TEMPO 2508/2511 7000 NSC RMK PEB

Obserwacja i prognoza pogody dla ponad 4000 lotnisk (raport METAR i TAF).

Dostępne stacje oznaczono żółtymi i czerwonymi punktami na mapie.

Najedź kursorem aby zobaczyć nazwę stacji.

Kliknij aby zobaczyć obserwacje i prognozy pogody.

Aby zmienić mapę: kliknij na zielony przycisk z czarnym krzyżykiem, aby powiększyć; na zielony przycisk z myślnikiem, aby pomniejszyć; na zielone strzałki, aby przejść do map sąsiednich.


METAR-TAF: